createdAt,value
2023-05-03T00:00:23.698Z,10.85
2023-05-03T00:00:55.487Z,11.13
2023-05-03T00:01:27.283Z,10.60
2023-05-03T00:01:59.165Z,11.18
2023-05-03T00:02:32.212Z,11.60
2023-05-03T00:03:04.814Z,10.85
2023-05-03T00:03:37.708Z,10.40
2023-05-03T00:04:10.833Z,11.80
2023-05-03T00:04:46.295Z,11.65
2023-05-03T00:05:18.502Z,11.55
2023-05-03T00:05:51.410Z,10.80
2023-05-03T00:06:23.310Z,10.13
2023-05-03T00:06:55.612Z,9.88
2023-05-03T00:07:28.468Z,11.68
2023-05-03T00:08:00.860Z,11.00
2023-05-03T00:08:32.679Z,10.45
2023-05-03T00:09:05.467Z,12.07
2023-05-03T00:09:37.266Z,11.00
2023-05-03T00:10:10.400Z,10.77
2023-05-03T00:10:43.289Z,9.57
2023-05-03T00:11:15.871Z,10.43
2023-05-03T00:11:49.088Z,11.82
2023-05-03T00:12:22.254Z,11.05
2023-05-03T00:12:55.610Z,9.85
2023-05-03T00:13:27.621Z,10.30
2023-05-03T00:14:00.880Z,10.55
2023-05-03T00:14:32.830Z,11.40
2023-05-03T00:15:05.934Z,10.43
2023-05-03T00:15:38.726Z,9.93
2023-05-03T00:16:10.595Z,11.27
2023-05-03T00:16:43.294Z,12.45
2023-05-03T00:17:15.342Z,12.00
2023-05-03T00:17:48.240Z,12.70
2023-05-03T00:18:20.658Z,10.68
2023-05-03T00:18:52.526Z,10.10
2023-05-03T00:19:31.353Z,10.48
2023-05-03T00:20:04.637Z,10.18
2023-05-03T00:20:36.976Z,10.15
2023-05-03T00:21:09.726Z,9.30
2023-05-03T00:21:41.573Z,10.57
2023-05-03T00:22:13.411Z,10.45
2023-05-03T00:22:46.190Z,11.15
2023-05-03T00:23:17.974Z,10.77
2023-05-03T00:23:49.892Z,9.75
2023-05-03T00:24:22.677Z,11.30
2023-05-03T00:24:54.451Z,11.05
2023-05-03T00:25:26.258Z,11.32
2023-05-03T00:26:00.279Z,11.68
2023-05-03T00:26:33.298Z,10.80
2023-05-03T00:27:06.640Z,10.10
2023-05-03T00:27:39.501Z,10.80
2023-05-03T00:28:11.343Z,10.45
2023-05-03T00:28:43.223Z,11.70
2023-05-03T00:29:16.337Z,10.85
2023-05-03T00:29:51.410Z,11.38
2023-05-03T00:30:25.057Z,12.73
2023-05-03T00:30:57.862Z,10.35
2023-05-03T00:31:29.798Z,9.77
2023-05-03T00:32:02.407Z,10.43
2023-05-03T00:32:35.318Z,11.25
2023-05-03T00:33:07.225Z,10.68
2023-05-03T00:33:39.733Z,11.25
2023-05-03T00:34:12.469Z,11.10
2023-05-03T00:34:44.349Z,9.50
2023-05-03T00:35:17.239Z,11.82
2023-05-03T00:35:49.107Z,10.50
2023-05-03T00:36:20.907Z,10.13
2023-05-03T00:36:53.668Z,9.90
2023-05-03T00:37:25.887Z,10.20
2023-05-03T00:37:57.801Z,12.00
2023-05-03T00:38:30.564Z,10.43
2023-05-03T00:39:02.695Z,10.35
2023-05-03T00:39:34.503Z,11.02
2023-05-03T00:40:08.969Z,10.10
2023-05-03T00:40:41.020Z,10.30
2023-05-03T00:41:13.166Z,9.93
2023-05-03T00:41:45.986Z,10.43
2023-05-03T00:42:19.353Z,10.38
2023-05-03T00:42:51.123Z,9.38
2023-05-03T00:43:23.892Z,11.45
2023-05-03T00:43:55.715Z,10.82
2023-05-03T00:44:27.888Z,10.88
2023-05-03T00:45:01.026Z,10.80
2023-05-03T00:45:34.493Z,10.13
2023-05-03T00:46:16.703Z,10.18
2023-05-03T00:46:50.784Z,10.70
2023-05-03T00:47:22.821Z,10.93
2023-05-03T00:47:54.740Z,10.23
2023-05-03T00:48:28.414Z,9.50
2023-05-03T00:49:00.295Z,10.32
2023-05-03T00:49:33.004Z,10.27
2023-05-03T00:50:07.354Z,9.70
2023-05-03T00:50:39.526Z,9.85
2023-05-03T00:51:14.819Z,9.55
2023-05-03T00:51:47.738Z,9.02
2023-05-03T00:52:19.652Z,9.90
2023-05-03T00:52:51.913Z,11.15
2023-05-03T00:53:24.833Z,9.15
2023-05-03T00:53:56.972Z,10.30
2023-05-03T00:54:29.699Z,10.27
2023-05-03T00:55:02.985Z,10.00
2023-05-03T00:55:36.135Z,9.73
2023-05-03T00:56:09.221Z,9.25
2023-05-03T00:56:51.112Z,9.40
2023-05-03T00:57:26.247Z,10.82
2023-05-03T00:57:58.113Z,9.13
2023-05-03T00:58:33.348Z,11.15
2023-05-03T00:59:06.490Z,9.98
2023-05-03T00:59:38.351Z,10.85
2023-05-03T01:00:13.398Z,9.82
2023-05-03T01:00:45.372Z,10.80
2023-05-03T01:01:17.960Z,10.82
2023-05-03T01:01:52.558Z,10.30
2023-05-03T01:02:24.767Z,10.55
2023-05-03T01:02:56.821Z,9.60
2023-05-03T01:03:30.674Z,9.50
2023-05-03T01:04:04.510Z,9.40
2023-05-03T01:04:37.698Z,10.25
2023-05-03T01:05:11.039Z,9.95
2023-05-03T01:05:57.851Z,9.60
2023-05-03T01:06:37.963Z,10.75
2023-05-03T01:07:22.736Z,9.88
2023-05-03T01:08:05.827Z,10.18
2023-05-03T01:08:45.209Z,10.73
2023-05-03T01:09:26.106Z,10.13
2023-05-03T01:10:04.725Z,10.18
2023-05-03T01:10:45.270Z,9.50
2023-05-03T01:11:23.774Z,9.63
2023-05-03T01:12:05.243Z,9.73
2023-05-03T01:12:49.937Z,9.05
2023-05-03T01:13:27.970Z,10.40
2023-05-03T01:14:06.197Z,9.95
2023-05-03T01:14:47.786Z,9.85
2023-05-03T01:15:31.890Z,9.05
2023-05-03T01:16:19.748Z,10.60
2023-05-03T01:16:56.702Z,8.57
2023-05-03T01:17:29.922Z,9.82
2023-05-03T01:18:07.832Z,11.02
2023-05-03T01:18:41.814Z,10.65
2023-05-03T01:19:27.827Z,9.30
2023-05-03T01:20:05.860Z,9.93
2023-05-03T01:20:42.290Z,9.25
2023-05-03T01:21:16.454Z,11.63
2023-05-03T01:21:56.938Z,9.45
2023-05-03T01:22:38.246Z,9.60
2023-05-03T01:23:14.815Z,10.05
2023-05-03T01:23:54.520Z,9.95
2023-05-03T01:24:29.330Z,9.95
2023-05-03T01:25:07.728Z,10.48
2023-05-03T01:25:39.541Z,9.30
2023-05-03T01:26:21.074Z,9.52
2023-05-03T01:26:53.828Z,10.68
2023-05-03T01:27:25.633Z,10.45
2023-05-03T01:27:57.394Z,9.93
2023-05-03T01:28:30.197Z,10.02
2023-05-03T01:29:02.144Z,9.18
2023-05-03T01:29:33.924Z,10.30
2023-05-03T01:30:08.681Z,10.75
2023-05-03T01:30:41.732Z,11.48
2023-05-03T01:31:21.717Z,10.20
2023-05-03T01:32:00.596Z,10.57
2023-05-03T01:32:45.827Z,11.52
2023-05-03T01:33:26.205Z,10.02
2023-05-03T01:34:15.497Z,10.68
2023-05-03T01:34:53.205Z,10.20
2023-05-03T01:35:30.269Z,10.00
2023-05-03T01:36:07.724Z,11.10
2023-05-03T01:36:43.402Z,9.93
2023-05-03T01:37:16.081Z,10.88
2023-05-03T01:37:50.292Z,9.63
2023-05-03T01:38:23.067Z,11.23
2023-05-03T01:38:55.018Z,10.20
2023-05-03T01:39:33.564Z,9.73
2023-05-03T01:40:10.340Z,11.07
2023-05-03T01:40:46.966Z,9.25
2023-05-03T01:41:21.175Z,9.90
2023-05-03T01:41:53.950Z,9.40
2023-05-03T01:42:27.243Z,9.77
2023-05-03T01:43:01.360Z,8.93
2023-05-03T01:43:35.365Z,10.18
2023-05-03T01:44:08.963Z,10.00
2023-05-03T01:44:42.742Z,10.02
2023-05-03T01:45:14.819Z,10.15
2023-05-03T01:45:47.627Z,9.50
2023-05-03T01:46:20.623Z,10.23
2023-05-03T01:46:52.743Z,9.77
2023-05-03T01:47:24.602Z,9.85
2023-05-03T01:47:58.041Z,11.77
2023-05-03T01:48:29.894Z,9.50
2023-05-03T01:49:01.655Z,9.15
2023-05-03T01:49:35.085Z,9.80
2023-05-03T01:50:07.123Z,9.50
2023-05-03T01:50:39.008Z,8.88
2023-05-03T01:51:11.867Z,8.73
2023-05-03T01:51:43.751Z,8.60
2023-05-03T01:52:15.598Z,8.27
2023-05-03T01:52:50.676Z,8.60
2023-05-03T01:53:22.548Z,8.43
2023-05-03T01:53:54.341Z,50.45
2023-05-03T01:54:27.228Z,91.07
2023-05-03T01:55:00.009Z,67.20
2023-05-03T01:55:33.309Z,60.45
2023-05-03T01:56:08.310Z,52.20
2023-05-03T01:56:40.219Z,39.13
2023-05-03T01:57:12.007Z,25.65
2023-05-03T01:57:44.820Z,22.52
2023-05-03T01:58:16.680Z,15.57
2023-05-03T01:58:48.441Z,14.88
2023-05-03T01:59:21.171Z,12.65
2023-05-03T01:59:53.090Z,11.43
2023-05-03T02:00:25.221Z,11.15
2023-05-03T02:00:58.503Z,10.55
2023-05-03T02:01:30.656Z,11.43
2023-05-03T02:02:02.526Z,11.40
2023-05-03T02:02:35.371Z,10.40
2023-05-03T02:03:07.248Z,8.80
2023-05-03T02:03:39.058Z,9.35
2023-05-03T02:04:11.913Z,10.30
2023-05-03T02:04:43.773Z,10.10
2023-05-03T02:05:15.876Z,10.50
2023-05-03T02:05:49.510Z,9.32
2023-05-03T02:06:21.388Z,8.77
2023-05-03T02:06:53.209Z,9.02
2023-05-03T02:07:26.332Z,9.55
2023-05-03T02:07:58.209Z,9.98
2023-05-03T02:08:29.987Z,10.00
2023-05-03T02:09:02.806Z,10.82
2023-05-03T02:09:34.680Z,9.70
2023-05-03T02:10:07.807Z,8.85
2023-05-03T02:10:44.926Z,11.20
2023-05-03T02:11:16.748Z,8.45
2023-05-03T02:11:48.530Z,9.95
2023-05-03T02:12:21.709Z,9.35
2023-05-03T02:12:53.556Z,9.43
2023-05-03T02:13:25.444Z,10.02
2023-05-03T02:13:58.204Z,8.48
2023-05-03T02:14:29.991Z,9.40
2023-05-03T02:15:01.856Z,9.32
2023-05-03T02:15:34.677Z,9.63
2023-05-03T02:16:06.664Z,9.65
2023-05-03T02:16:38.752Z,8.93
2023-05-03T02:17:11.717Z,9.82
2023-05-03T02:17:43.912Z,9.32
2023-05-03T02:18:16.334Z,10.32
2023-05-03T02:18:49.097Z,9.57
2023-05-03T02:19:20.922Z,9.85
2023-05-03T02:19:52.850Z,8.70
2023-05-03T02:20:25.645Z,9.23
2023-05-03T02:20:57.732Z,9.15
2023-05-03T02:21:29.570Z,9.05
2023-05-03T02:22:01.423Z,9.80
2023-05-03T02:22:34.288Z,9.50
2023-05-03T02:23:06.159Z,9.07
2023-05-03T02:23:37.968Z,9.27
2023-05-03T02:24:10.804Z,8.32
2023-05-03T02:24:43.254Z,9.88
2023-05-03T02:25:15.116Z,8.35
2023-05-03T02:25:49.690Z,9.07
2023-05-03T02:26:21.479Z,9.30
2023-05-03T02:26:54.205Z,9.48
2023-05-03T02:27:25.995Z,8.90
2023-05-03T02:27:57.823Z,9.57
2023-05-03T02:28:30.629Z,9.27
2023-05-03T02:29:02.915Z,9.05
2023-05-03T02:29:34.798Z,8.55
2023-05-03T02:30:08.895Z,8.55
2023-05-03T02:30:40.721Z,9.68
2023-05-03T02:31:13.445Z,9.20
2023-05-03T02:31:46.252Z,9.15
2023-05-03T02:32:18.602Z,9.43
2023-05-03T02:32:50.659Z,10.27
2023-05-03T02:33:23.438Z,9.50
2023-05-03T02:33:55.216Z,8.73
2023-05-03T02:34:27.388Z,10.15
2023-05-03T02:35:00.175Z,8.88
2023-05-03T02:35:32.044Z,8.50
2023-05-03T02:36:04.309Z,8.43
2023-05-03T02:36:37.817Z,9.23
2023-05-03T02:37:09.577Z,9.05
2023-05-03T02:37:41.462Z,8.27
2023-05-03T02:38:14.247Z,8.80
2023-05-03T02:38:46.064Z,9.90
2023-05-03T02:39:17.874Z,7.90
2023-05-03T02:39:50.927Z,8.93
2023-05-03T02:40:22.809Z,9.45
2023-05-03T02:40:55.978Z,8.52
2023-05-03T02:41:28.704Z,9.07
2023-05-03T02:42:00.613Z,8.48
2023-05-03T02:42:32.436Z,8.20
2023-05-03T02:43:05.247Z,9.55
2023-05-03T02:43:37.369Z,9.70
2023-05-03T02:44:09.170Z,7.45
2023-05-03T02:44:41.186Z,8.75
2023-05-03T02:45:13.984Z,9.48
2023-05-03T02:45:45.838Z,8.82
2023-05-03T02:46:17.688Z,8.43
2023-05-03T02:46:50.569Z,8.93
2023-05-03T02:47:22.406Z,8.60
2023-05-03T02:47:54.239Z,7.68
2023-05-03T02:48:27.010Z,8.38
2023-05-03T02:48:58.844Z,8.50
2023-05-03T02:49:30.702Z,8.48
2023-05-03T02:50:03.690Z,8.38
2023-05-03T02:50:35.797Z,8.75
2023-05-03T02:51:07.629Z,8.85
2023-05-03T02:51:40.441Z,9.18
2023-05-03T02:52:12.399Z,8.20
2023-05-03T02:52:44.172Z,9.45
2023-05-03T02:53:16.937Z,8.10
2023-05-03T02:53:48.720Z,8.77
2023-05-03T02:54:20.665Z,7.85
2023-05-03T02:54:53.467Z,9.60
2023-05-03T02:55:25.363Z,8.45
2023-05-03T02:55:58.491Z,8.40
2023-05-03T02:56:31.290Z,8.68
2023-05-03T02:57:04.396Z,8.65
2023-05-03T02:57:37.122Z,9.23
2023-05-03T02:58:09.984Z,7.95
2023-05-03T02:58:41.756Z,8.52
2023-05-03T02:59:14.522Z,8.57
2023-05-03T02:59:46.326Z,8.57
2023-05-03T03:00:18.409Z,8.65
2023-05-03T03:00:51.445Z,9.57
2023-05-03T03:01:23.403Z,8.27
2023-05-03T03:01:55.401Z,8.57
2023-05-03T03:02:28.241Z,8.50
2023-05-03T03:03:00.383Z,9.90
2023-05-03T03:03:32.472Z,8.63
2023-05-03T03:04:07.041Z,8.70
2023-05-03T03:04:38.905Z,9.68
2023-05-03T03:05:10.710Z,9.60
2023-05-03T03:05:42.487Z,8.93
2023-05-03T03:06:15.354Z,9.98
2023-05-03T03:06:47.311Z,10.13
2023-05-03T03:07:19.273Z,9.65
2023-05-03T03:07:52.096Z,10.98
2023-05-03T03:08:23.973Z,9.45
2023-05-03T03:08:55.800Z,10.65
2023-05-03T03:09:28.621Z,10.70
2023-05-03T03:10:00.877Z,10.57
2023-05-03T03:10:33.184Z,10.65
2023-05-03T03:11:08.230Z,10.35
2023-05-03T03:11:40.874Z,10.43
2023-05-03T03:12:12.857Z,10.63
2023-05-03T03:12:45.914Z,10.35
2023-05-03T03:13:17.747Z,10.07
2023-05-03T03:13:49.518Z,10.57
2023-05-03T03:14:21.318Z,10.23
2023-05-03T03:14:54.087Z,11.75
2023-05-03T03:15:25.997Z,11.98
2023-05-03T03:15:57.829Z,9.43
2023-05-03T03:16:30.914Z,10.68
2023-05-03T03:17:03.189Z,9.50
2023-05-03T03:17:38.798Z,9.30
2023-05-03T03:18:11.709Z,9.77
2023-05-03T03:18:43.501Z,10.30
2023-05-03T03:19:15.339Z,10.48
2023-05-03T03:19:48.086Z,9.85
2023-05-03T03:20:19.840Z,9.63
2023-05-03T03:20:51.648Z,10.65
2023-05-03T03:21:24.404Z,9.68
2023-05-03T03:21:56.202Z,9.75
2023-05-03T03:22:28.012Z,10.05
2023-05-03T03:23:00.799Z,10.52
2023-05-03T03:23:32.665Z,8.88
2023-05-03T03:24:04.697Z,9.93
2023-05-03T03:24:37.434Z,9.63
2023-05-03T03:25:10.245Z,8.90
2023-05-03T03:25:42.288Z,10.43
2023-05-03T03:26:16.453Z,8.55
2023-05-03T03:26:48.258Z,9.75
2023-05-03T03:27:21.430Z,9.30
2023-05-03T03:27:54.205Z,9.35
2023-05-03T03:28:25.991Z,9.57
2023-05-03T03:28:57.894Z,10.27
2023-05-03T03:29:32.918Z,10.35
2023-05-03T03:30:06.244Z,10.27
2023-05-03T03:30:38.166Z,10.40
2023-05-03T03:31:11.179Z,9.57
2023-05-03T03:31:43.027Z,9.15
2023-05-03T03:32:16.223Z,10.88
2023-05-03T03:32:48.050Z,9.25
2023-05-03T03:33:22.873Z,10.70
2023-05-03T03:33:57.281Z,9.65
2023-05-03T03:34:29.374Z,11.18
2023-05-03T03:35:01.424Z,8.93
2023-05-03T03:35:34.727Z,9.40
2023-05-03T03:36:10.080Z,12.18
2023-05-03T03:36:41.849Z,10.60
2023-05-03T03:37:13.694Z,9.88
2023-05-03T03:37:46.465Z,10.63
2023-05-03T03:38:18.252Z,9.73
2023-05-03T03:38:50.064Z,9.63
2023-05-03T03:39:22.818Z,9.10
2023-05-03T03:39:54.636Z,9.15
2023-05-03T03:40:26.413Z,10.02
2023-05-03T03:40:59.219Z,9.60
2023-05-03T03:41:32.559Z,10.45
2023-05-03T03:42:04.578Z,9.90
2023-05-03T03:42:37.500Z,10.25
2023-05-03T03:43:10.077Z,10.13
2023-05-03T03:43:41.860Z,10.10
2023-05-03T03:44:14.605Z,10.05
2023-05-03T03:44:46.389Z,9.52
2023-05-03T03:45:18.313Z,10.18
2023-05-03T03:45:50.308Z,10.45
2023-05-03T03:46:23.124Z,10.55
2023-05-03T03:46:54.938Z,10.13
2023-05-03T03:47:26.939Z,11.20
2023-05-03T03:47:58.916Z,11.50
2023-05-03T03:48:31.689Z,10.57
2023-05-03T03:49:03.550Z,11.13
2023-05-03T03:49:36.094Z,11.18
2023-05-03T03:50:09.312Z,10.40
2023-05-03T03:50:41.761Z,11.32
2023-05-03T03:51:13.567Z,11.23
2023-05-03T03:51:46.328Z,11.38
2023-05-03T03:52:18.186Z,9.90
2023-05-03T03:52:49.956Z,11.25
2023-05-03T03:53:22.752Z,11.40
2023-05-03T03:53:54.511Z,11.25
2023-05-03T03:54:27.268Z,11.15
2023-05-03T03:54:59.015Z,11.18
2023-05-03T03:55:31.223Z,11.95
2023-05-03T03:56:04.038Z,11.45
2023-05-03T03:56:37.221Z,10.60
2023-05-03T03:57:09.181Z,10.80
2023-05-03T03:57:42.336Z,9.93
2023-05-03T03:58:14.184Z,10.85
2023-05-03T03:58:46.415Z,10.35
2023-05-03T03:59:19.258Z,11.25
2023-05-03T03:59:51.156Z,10.35
2023-05-03T04:00:23.318Z,10.77
2023-05-03T04:00:56.195Z,10.60
2023-05-03T04:01:28.033Z,10.63
2023-05-03T04:01:59.855Z,11.02
2023-05-03T04:02:32.813Z,11.00
2023-05-03T04:03:07.178Z,10.95
2023-05-03T04:03:39.513Z,11.25
2023-05-03T04:04:12.439Z,11.25
2023-05-03T04:04:44.308Z,8.98
2023-05-03T04:05:16.098Z,10.05
2023-05-03T04:05:48.980Z,10.90
2023-05-03T04:06:20.992Z,10.02
2023-05-03T04:06:53.005Z,10.73
2023-05-03T04:07:25.817Z,11.23
2023-05-03T04:07:57.635Z,11.90
2023-05-03T04:08:29.496Z,10.80
2023-05-03T04:09:02.243Z,10.27
2023-05-03T04:09:34.011Z,11.70
2023-05-03T04:10:06.688Z,9.95
2023-05-03T04:10:39.512Z,10.35
2023-05-03T04:11:12.337Z,10.10
2023-05-03T04:11:46.955Z,10.57
2023-05-03T04:12:18.863Z,10.70
2023-05-03T04:12:50.687Z,11.10
2023-05-03T04:13:23.432Z,10.25
2023-05-03T04:13:55.196Z,10.15
2023-05-03T04:14:27.136Z,10.30
2023-05-03T04:14:59.853Z,10.00
2023-05-03T04:15:31.650Z,10.48
2023-05-03T04:16:04.798Z,9.80
2023-05-03T04:16:37.968Z,10.32
2023-05-03T04:17:09.893Z,10.00
2023-05-03T04:17:41.750Z,10.57
2023-05-03T04:18:14.682Z,10.05
2023-05-03T04:18:46.569Z,10.55
2023-05-03T04:19:18.589Z,10.00
2023-05-03T04:19:52.607Z,10.07
2023-05-03T04:20:24.534Z,11.77
2023-05-03T04:20:56.339Z,9.52
2023-05-03T04:21:29.183Z,9.48
2023-05-03T04:22:01.203Z,10.68
2023-05-03T04:22:33.179Z,9.98
2023-05-03T04:23:05.986Z,11.30
2023-05-03T04:23:38.200Z,10.27
2023-05-03T04:24:14.962Z,9.90
2023-05-03T04:24:47.838Z,10.02
2023-05-03T04:25:19.834Z,13.82
2023-05-03T04:25:52.086Z,10.35
2023-05-03T04:26:31.860Z,9.30
2023-05-03T04:27:05.525Z,9.52
2023-05-03T04:27:38.163Z,9.60
2023-05-03T04:28:10.941Z,10.98
2023-05-03T04:28:42.872Z,10.50
2023-05-03T04:29:14.696Z,10.43
2023-05-03T04:29:49.018Z,11.90
2023-05-03T04:30:21.069Z,10.05
2023-05-03T04:30:53.131Z,11.82
2023-05-03T04:31:26.878Z,10.13
2023-05-03T04:32:01.130Z,10.13
2023-05-03T04:32:37.099Z,10.98
2023-05-03T04:33:10.326Z,10.98
2023-05-03T04:33:42.163Z,11.75
2023-05-03T04:34:15.795Z,9.40
2023-05-03T04:34:49.350Z,9.80
2023-05-03T04:35:22.878Z,10.65
2023-05-03T04:35:54.689Z,10.93
2023-05-03T04:36:26.661Z,10.25
2023-05-03T04:37:00.492Z,10.77
2023-05-03T04:37:32.953Z,10.93
2023-05-03T04:38:04.712Z,11.40
2023-05-03T04:38:37.492Z,10.88
2023-05-03T04:39:11.500Z,10.80
2023-05-03T04:39:43.941Z,10.73
2023-05-03T04:40:19.592Z,10.50
2023-05-03T04:40:51.638Z,10.10
2023-05-03T04:41:24.879Z,10.60
2023-05-03T04:41:58.659Z,10.90
2023-05-03T04:42:31.902Z,9.80
2023-05-03T04:43:05.503Z,10.95
2023-05-03T04:43:37.333Z,10.05
2023-05-03T04:44:10.077Z,10.65
2023-05-03T04:44:42.565Z,10.50
2023-05-03T04:45:14.499Z,10.85
2023-05-03T04:45:47.252Z,11.15
2023-05-03T04:46:19.100Z,10.43
2023-05-03T04:46:51.432Z,11.00
2023-05-03T04:47:25.101Z,10.98
2023-05-03T04:47:57.064Z,11.65
2023-05-03T04:48:28.912Z,10.30
2023-05-03T04:49:01.845Z,11.00
2023-05-03T04:49:34.564Z,10.40
2023-05-03T04:50:08.820Z,10.63
2023-05-03T04:50:41.577Z,10.57
2023-05-03T04:51:13.434Z,10.57
2023-05-03T04:51:45.410Z,11.43
2023-05-03T04:52:18.235Z,13.27
2023-05-03T04:52:50.076Z,11.73
2023-05-03T04:53:21.834Z,11.35
2023-05-03T04:53:54.656Z,11.50
2023-05-03T04:54:26.755Z,11.13
2023-05-03T04:54:58.522Z,12.57
2023-05-03T04:55:31.250Z,12.23
2023-05-03T04:56:03.217Z,12.30
2023-05-03T04:56:36.045Z,11.70
2023-05-03T04:57:10.195Z,11.45
2023-05-03T04:57:44.443Z,10.13
2023-05-03T04:58:16.452Z,10.57
2023-05-03T04:58:48.273Z,11.88
2023-05-03T04:59:21.100Z,14.27
2023-05-03T04:59:54.008Z,12.48
2023-05-03T05:00:26.133Z,11.65
2023-05-03T05:00:58.942Z,13.18
2023-05-03T05:01:30.920Z,13.07
2023-05-03T05:02:02.799Z,13.30
2023-05-03T05:02:35.601Z,14.52
2023-05-03T05:03:07.970Z,12.45
2023-05-03T05:03:41.044Z,12.90
2023-05-03T05:04:13.009Z,13.88
2023-05-03T05:04:44.825Z,13.70
2023-05-03T05:05:19.590Z,14.20
2023-05-03T05:05:52.202Z,14.20
2023-05-03T05:06:24.124Z,15.98
2023-05-03T05:06:56.922Z,14.02
2023-05-03T05:07:28.951Z,13.73
2023-05-03T05:08:00.813Z,13.70
2023-05-03T05:08:33.616Z,15.50
2023-05-03T05:09:07.379Z,15.75
2023-05-03T05:09:40.081Z,15.30
2023-05-03T05:10:14.625Z,14.73
2023-05-03T05:10:46.466Z,14.80
2023-05-03T05:11:18.855Z,15.02
2023-05-03T05:11:51.665Z,16.38
2023-05-03T05:12:24.107Z,15.50
2023-05-03T05:12:58.120Z,14.23
2023-05-03T05:13:30.909Z,16.20
2023-05-03T05:14:02.681Z,15.48
2023-05-03T05:14:34.464Z,15.00
2023-05-03T05:15:08.866Z,15.15
2023-05-03T05:15:40.732Z,15.95
2023-05-03T05:16:13.647Z,14.60
2023-05-03T05:16:45.782Z,18.40
2023-05-03T05:17:18.701Z,15.32
2023-05-03T05:17:50.615Z,14.73
2023-05-03T05:18:23.544Z,15.70
2023-05-03T05:18:55.363Z,17.08
2023-05-03T05:19:27.528Z,15.77
2023-05-03T05:20:00.639Z,18.05
2023-05-03T05:20:32.672Z,15.60
2023-05-03T05:21:04.807Z,17.15
2023-05-03T05:21:37.547Z,19.02
2023-05-03T05:22:09.393Z,16.40
2023-05-03T05:22:41.489Z,17.77
2023-05-03T05:23:14.215Z,17.20
2023-05-03T05:23:46.006Z,17.83
2023-05-03T05:24:18.734Z,18.58
2023-05-03T05:24:51.447Z,17.65
2023-05-03T05:25:23.544Z,18.10
2023-05-03T05:26:00.209Z,19.38
2023-05-03T05:26:33.163Z,17.63
2023-05-03T05:27:05.049Z,17.50
2023-05-03T05:27:37.817Z,30.55
2023-05-03T05:28:11.234Z,17.20
2023-05-03T05:28:44.127Z,22.65
2023-05-03T05:29:16.059Z,18.38
2023-05-03T05:29:47.858Z,18.92
2023-05-03T05:30:20.571Z,17.45
2023-05-03T05:30:52.505Z,18.02
2023-05-03T05:31:25.306Z,18.58
2023-05-03T05:31:57.205Z,20.42
2023-05-03T05:32:29.065Z,20.77
2023-05-03T05:33:01.875Z,19.40
2023-05-03T05:33:33.773Z,22.52
2023-05-03T05:34:06.571Z,21.02
2023-05-03T05:34:45.124Z,16.38
2023-05-03T05:35:19.098Z,20.65
2023-05-03T05:35:51.844Z,23.65
2023-05-03T05:36:23.737Z,18.90
2023-05-03T05:36:56.488Z,17.25
2023-05-03T05:37:28.589Z,17.00
2023-05-03T05:38:01.557Z,18.42
2023-05-03T05:38:33.446Z,29.70
2023-05-03T05:39:05.379Z,23.02
2023-05-03T05:39:38.161Z,24.50
2023-05-03T05:40:11.131Z,18.50
2023-05-03T05:40:42.927Z,16.65
2023-05-03T05:41:15.788Z,19.05
2023-05-03T05:41:47.660Z,17.75
2023-05-03T05:42:19.484Z,18.13
2023-05-03T05:42:52.715Z,47.88
2023-05-03T05:43:25.922Z,27.27
2023-05-03T05:43:58.447Z,29.13
2023-05-03T05:44:31.767Z,37.22
2023-05-03T05:45:04.201Z,23.10
2023-05-03T05:45:37.201Z,19.63
2023-05-03T05:46:09.161Z,18.27
2023-05-03T05:46:41.251Z,19.23
2023-05-03T05:47:14.083Z,23.77
2023-05-03T05:47:46.743Z,23.95
2023-05-03T05:48:19.723Z,18.55
2023-05-03T05:48:52.312Z,17.95
2023-05-03T05:49:25.128Z,18.45
2023-05-03T05:49:56.915Z,19.10
2023-05-03T05:50:30.538Z,21.20
2023-05-03T05:51:02.357Z,28.55
2023-05-03T05:51:35.168Z,24.27
2023-05-03T05:52:07.669Z,27.02
2023-05-03T05:52:39.508Z,20.08
2023-05-03T05:53:12.308Z,20.30
2023-05-03T05:53:44.138Z,28.48
2023-05-03T05:54:16.208Z,22.25
2023-05-03T05:54:48.952Z,22.98
2023-05-03T05:55:21.091Z,37.13
2023-05-03T05:55:53.836Z,24.27
2023-05-03T05:56:26.446Z,28.13
2023-05-03T05:56:59.353Z,25.15
2023-05-03T05:57:31.192Z,23.42
2023-05-03T05:58:03.092Z,19.45
2023-05-03T05:58:38.374Z,24.70
2023-05-03T05:59:10.709Z,26.20
2023-05-03T05:59:43.502Z,17.30
2023-05-03T06:00:17.102Z,22.92
2023-05-03T06:00:49.846Z,27.65
2023-05-03T06:01:21.607Z,19.98
2023-05-03T06:01:53.507Z,23.88
2023-05-03T06:02:27.589Z,20.15
2023-05-03T06:02:59.530Z,19.77
2023-05-03T06:03:31.718Z,18.20
2023-05-03T06:04:04.857Z,19.05
2023-05-03T06:04:36.614Z,19.95
2023-05-03T06:05:09.233Z,17.27
2023-05-03T06:05:42.184Z,21.35
2023-05-03T06:06:14.300Z,24.08
2023-05-03T06:06:47.326Z,22.17
2023-05-03T06:07:19.411Z,19.05
2023-05-03T06:07:52.182Z,20.42
2023-05-03T06:08:24.074Z,20.15
2023-05-03T06:08:56.852Z,21.05
2023-05-03T06:09:28.630Z,26.38
2023-05-03T06:10:00.520Z,17.70
2023-05-03T06:10:33.614Z,20.10
2023-05-03T06:11:05.473Z,22.30
2023-05-03T06:11:38.747Z,20.75
2023-05-03T06:12:10.547Z,18.52
2023-05-03T06:12:42.323Z,19.30
2023-05-03T06:13:15.143Z,18.75
2023-05-03T06:13:48.267Z,19.30
2023-05-03T06:14:21.056Z,19.70
2023-05-03T06:15:01.802Z,21.88
2023-05-03T06:15:35.359Z,20.27
2023-05-03T06:16:07.621Z,21.10
2023-05-03T06:16:39.578Z,17.65
2023-05-03T06:17:12.519Z,18.40
2023-05-03T06:17:45.388Z,21.30
2023-05-03T06:18:17.311Z,25.13
2023-05-03T06:18:50.229Z,23.50
2023-05-03T06:19:22.143Z,22.05
2023-05-03T06:19:54.884Z,24.73
2023-05-03T06:20:26.826Z,23.88
2023-05-03T06:20:59.593Z,23.08
2023-05-03T06:21:31.434Z,31.08
2023-05-03T06:22:04.240Z,33.78
2023-05-03T06:22:36.985Z,24.17
2023-05-03T06:23:08.850Z,21.75
2023-05-03T06:23:42.091Z,21.00
2023-05-03T06:24:20.720Z,23.33
2023-05-03T06:24:52.894Z,25.13
2023-05-03T06:25:25.646Z,19.25
2023-05-03T06:25:57.412Z,18.98
2023-05-03T06:26:30.454Z,18.70
2023-05-03T06:27:02.640Z,19.65
2023-05-03T06:27:34.427Z,20.63
2023-05-03T06:28:07.260Z,19.92
2023-05-03T06:28:39.069Z,22.38
2023-05-03T06:29:13.186Z,19.17
2023-05-03T06:29:45.655Z,20.40
2023-05-03T06:30:18.459Z,18.55
2023-05-03T06:30:51.724Z,20.55
2023-05-03T06:31:23.769Z,19.95
2023-05-03T06:31:56.640Z,19.77
2023-05-03T06:32:28.536Z,21.52
2023-05-03T06:33:01.334Z,19.15
2023-05-03T06:33:33.173Z,20.15
2023-05-03T06:34:06.647Z,21.88
2023-05-03T06:34:39.866Z,21.73
2023-05-03T06:35:12.409Z,22.33
2023-05-03T06:35:47.037Z,20.67
2023-05-03T06:36:18.854Z,22.35
2023-05-03T06:36:51.622Z,20.15
2023-05-03T06:37:23.458Z,20.48
2023-05-03T06:37:55.356Z,24.42
2023-05-03T06:38:28.173Z,20.98
2023-05-03T06:39:00.161Z,23.60
2023-05-03T06:39:32.033Z,23.35
2023-05-03T06:40:06.716Z,22.10
2023-05-03T06:40:38.788Z,22.52
2023-05-03T06:41:11.615Z,21.40
2023-05-03T06:41:43.454Z,19.77
2023-05-03T06:42:15.348Z,20.30
2023-05-03T06:42:48.175Z,21.58
2023-05-03T06:43:20.991Z,18.70
2023-05-03T06:43:53.875Z,19.25
2023-05-03T06:44:27.030Z,18.92
2023-05-03T06:44:58.831Z,20.17
2023-05-03T06:45:31.566Z,17.40
2023-05-03T06:46:03.475Z,20.48
2023-05-03T06:46:35.587Z,19.98
2023-05-03T06:47:08.819Z,19.98
2023-05-03T06:47:42.459Z,21.55
2023-05-03T06:48:15.786Z,22.20
2023-05-03T06:48:47.733Z,21.83
2023-05-03T06:49:20.510Z,24.45
2023-05-03T06:49:52.318Z,20.77
2023-05-03T06:50:24.573Z,20.52
2023-05-03T06:50:57.664Z,18.70
2023-05-03T06:51:31.217Z,18.20
2023-05-03T06:52:03.996Z,19.83
2023-05-03T06:52:35.811Z,19.20
2023-05-03T06:53:07.650Z,18.48
2023-05-03T06:53:40.392Z,18.00
2023-05-03T06:54:12.190Z,18.50
2023-05-03T06:54:44.075Z,25.35
2023-05-03T06:55:17.064Z,17.98
2023-05-03T06:55:48.869Z,20.65
2023-05-03T06:56:21.765Z,19.85
2023-05-03T06:56:53.540Z,18.90
2023-05-03T06:57:28.661Z,19.13
2023-05-03T06:58:00.807Z,18.50
2023-05-03T06:58:33.565Z,19.63
2023-05-03T06:59:05.369Z,19.85
2023-05-03T06:59:39.536Z,18.10
2023-05-03T07:00:12.650Z,19.05
2023-05-03T07:00:44.479Z,18.35
2023-05-03T07:01:19.046Z,19.75
2023-05-03T07:01:51.080Z,18.70
2023-05-03T07:02:25.866Z,19.08
2023-05-03T07:02:57.856Z,20.10
2023-05-03T07:03:29.778Z,22.20
2023-05-03T07:04:02.834Z,22.02
2023-05-03T07:04:34.749Z,21.33
2023-05-03T07:05:08.341Z,19.85
2023-05-03T07:05:40.592Z,17.92
2023-05-03T07:06:13.943Z,20.20
2023-05-03T07:06:56.023Z,20.00
2023-05-03T07:07:29.749Z,19.15
2023-05-03T07:08:01.593Z,19.63
2023-05-03T07:08:34.323Z,18.50
2023-05-03T07:09:06.160Z,21.02
2023-05-03T07:09:43.333Z,22.15
2023-05-03T07:10:15.851Z,22.48